Time;durP1;ratioP1;P1;durP2;ratioP2;P2;SDS_P1;SDS_P2;PMS_P1;PMS_P2;Temp;Humidity;BMP_temperature;BMP_pressure;BME280_temperature;BME280_humidity;BME280_pressure;Samples;Min_cycle;Max_cycle;Signal;HPM_P1;HPM_P2
2022/10/27 00:00:27;;;;;;;;;;;;;;;12.41;52.75;101449.16;4867323;28;127874;-67
2022/10/27 00:02:53;;;;;;;;;;;;;;;12.39;52.79;101445.91;4879999;28;123773;-67
2022/10/27 00:05:21;;;;;;;;;;;;;;;12.40;52.71;101449.44;4874661;28;115600;-64
2022/10/27 00:07:47;;;;;;;;;;;;;;;12.38;52.71;101447.00;4869234;28;97953;-64
2022/10/27 00:10:13;;;;;;;;;;;;;;;12.37;52.86;101450.75;4864957;28;119988;-64
2022/10/27 00:12:39;;;;;;;;;;;;;;;12.38;52.72;101447.00;4867780;28;114205;-63
2022/10/27 00:15:05;;;;;;;;;;;;;;;12.41;52.87;101456.47;4873364;28;126719;-64
2022/10/27 00:17:31;;;;;;;;;;;;;;;12.42;52.82;101458.13;4876111;28;98074;-64
2022/10/27 00:19:57;;;;;;;;;;;;;;;12.42;52.92;101456.22;4870125;28;129017;-63
2022/10/27 00:22:23;;;;;;;;;;;;;;;12.47;52.67;101471.69;4870141;28;127914;-63
2022/10/27 00:24:49;;;;;;;;;;;;;;;12.49;52.35;101470.34;4883102;28;101297;-67
2022/10/27 00:27:15;;;;;;;;;;;;;;;12.51;52.81;101470.91;4871092;28;98262;-64
2022/10/27 00:29:40;;;;;;;;;;;;;;;12.53;52.75;101470.63;4873698;28;112227;-64
2022/10/27 00:32:06;;;;;;;;;;;;;;;12.55;52.73;101473.91;4871859;28;128262;-67
2022/10/27 00:34:32;;;;;;;;;;;;;;;12.58;52.45;101478.81;4869939;28;127791;-67
2022/10/27 00:36:58;;;;;;;;;;;;;;;12.60;52.89;101483.97;4876818;28;116659;-61
2022/10/27 00:39:24;;;;;;;;;;;;;;;12.59;52.59;101483.16;4875762;28;98413;-67
2022/10/27 00:41:50;;;;;;;;;;;;;;;12.64;52.77;101482.38;4869953;28;126940;-64
2022/10/27 00:44:42;;;;;;;;;;;;;;;12.65;52.65;101487.53;4867154;28;127322;-63
2022/10/27 00:47:26;;;;;;;;;;;;;;;12.69;52.64;101490.53;4871968;28;98268;-64
2022/10/27 00:50:01;;;;;;;;;;;;;;;12.71;53.03;101491.09;4868503;28;128567;-64
2022/10/27 00:52:35;;;;;;;;;;;;;;;12.71;52.65;101491.09;4871295;28;106846;-64
2022/10/27 00:55:04;;;;;;;;;;;;;;;12.74;52.61;101490.59;4877575;28;98719;-67
2022/10/27 00:57:30;;;;;;;;;;;;;;;12.76;52.82;101499.25;4876621;28;97904;-67
2022/10/27 00:59:56;;;;;;;;;;;;;;;12.77;52.79;101500.88;4874891;28;125826;-67
2022/10/27 01:02:22;;;;;;;;;;;;;;;12.81;52.66;101503.91;4845537;28;104235;-64
2022/10/27 01:04:51;;;;;;;;;;;;;;;12.82;52.49;101506.38;4867999;28;126850;-64
2022/10/27 01:07:17;;;;;;;;;;;;;;;12.85;52.76;101510.44;4875778;28;116351;-63
2022/10/27 01:09:43;;;;;;;;;;;;;;;12.85;52.96;101511.28;4855526;28;119981;-67
2022/10/27 01:12:09;;;;;;;;;;;;;;;12.88;52.58;101512.63;4871690;28;99124;-64
2022/10/27 01:14:35;;;;;;;;;;;;;;;12.89;52.56;101520.50;4870029;28;128534;-64
2022/10/27 01:17:01;;;;;;;;;;;;;;;12.89;52.90;101512.38;4876002;28;117890;-64
2022/10/27 01:19:51;;;;;;;;;;;;;;;12.93;52.76;101518.06;4876170;28;98325;-67
2022/10/27 01:22:28;;;;;;;;;;;;;;;12.94;52.62;101514.31;4877231;28;98508;-67
2022/10/27 01:25:18;;;;;;;;;;;;;;;12.97;52.83;101511.09;4876641;28;123758;-67
2022/10/27 01:27:56;;;;;;;;;;;;;;;12.97;52.91;101511.91;4877054;28;118073;-64
2022/10/27 01:30:22;;;;;;;;;;;;;;;12.99;52.54;101514.34;4873747;28;98350;-67
2022/10/27 01:33:20;;;;;;;;;;;;;;;12.99;52.99;101514.34;4856969;28;117645;-64
2022/10/27 01:35:52;;;;;;;;;;;;;;;13.00;52.66;101519.50;4870893;28;99098;-64
2022/10/27 01:38:26;;;;;;;;;;;;;;;13.01;53.01;101520.34;4869740;28;97909;-63
2022/10/27 01:41:12;;;;;;;;;;;;;;;13.03;52.99;101523.59;4855968;28;98519;-67
2022/10/27 01:43:38;;;;;;;;;;;;;;;13.03;52.93;101518.16;4861220;28;120638;-67
2022/10/27 01:46:05;;;;;;;;;;;;;;;13.03;52.70;101518.97;4869108;28;125520;-64
2022/10/27 01:48:37;;;;;;;;;;;;;;;13.03;52.67;101520.88;4863042;28;98253;-67
2022/10/27 01:51:05;;;;;;;;;;;;;;;13.03;52.89;101520.88;4863559;28;98994;-63
2022/10/27 01:53:33;;;;;;;;;;;;;;;13.03;53.03;101523.59;4871493;28;98490;-67
2022/10/27 01:56:06;;;;;;;;;;;;;;;13.02;52.71;101520.06;4873673;28;100074;-64
2022/10/27 01:58:37;;;;;;;;;;;;;;;13.05;53.06;101528.72;4875132;28;108220;-64
2022/10/27 02:01:37;;;;;;;;;;;;;;;13.05;52.60;101528.72;4869351;28;98395;-63
2022/10/27 02:04:09;;;;;;;;;;;;;;;13.05;53.03;101528.72;4876319;28;98409;-64
2022/10/27 02:06:38;;;;;;;;;;;;;;;13.02;52.82;101532.78;4870872;28;98272;-64
2022/10/27 02:09:15;;;;;;;;;;;;;;;13.03;52.69;101529.00;4875597;28;98009;-67
2022/10/27 02:11:42;;;;;;;;;;;;;;;13.03;52.78;101529.81;4867459;28;120464;-63
2022/10/27 02:14:08;;;;;;;;;;;;;;;13.02;52.77;101530.88;4864126;28;98372;-67
2022/10/27 02:16:38;;;;;;;;;;;;;;;13.00;52.67;101529.50;4873223;28;128153;-68
2022/10/27 02:19:34;;;;;;;;;;;;;;;12.98;53.15;101529.78;4874146;28;116479;-63
2022/10/27 02:22:00;;;;;;;;;;;;;;;12.96;52.77;101531.09;4871471;28;98257;-63
2022/10/27 02:24:26;;;;;;;;;;;;;;;12.96;52.92;101534.63;4866136;28;128385;-63
2022/10/27 02:26:56;;;;;;;;;;;;;;;12.95;52.98;101529.47;4856420;28;125696;-64
2022/10/27 02:29:35;;;;;;;;;;;;;;;12.92;52.80;101530.78;4869268;28;106238;-63
2022/10/27 02:32:03;;;;;;;;;;;;;;;12.91;52.88;101525.66;4876708;28;120235;-64
2022/10/27 02:34:30;;;;;;;;;;;;;;;12.89;52.98;101533.19;4875326;28;98591;-68
2022/10/27 02:36:56;;;;;;;;;;;;;;;12.87;53.05;101533.47;4869752;28;98508;-63
2022/10/27 02:39:22;;;;;;;;;;;;;;;12.85;53.00;101537.47;4873264;28;105210;-67
2022/10/27 02:41:48;;;;;;;;;;;;;;;12.83;53.15;101539.66;4871340;28;127690;-67
2022/10/27 02:44:13;;;;;;;;;;;;;;;12.81;53.04;101537.22;4867927;28;128572;-67
2022/10/27 02:46:39;;;;;;;;;;;;;;;12.78;52.97;101535.00;4865957;28;127702;-63
2022/10/27 02:49:05;;;;;;;;;;;;;;;12.76;52.88;101540.66;4869259;28;117694;-67
2022/10/27 02:51:31;;;;;;;;;;;;;;;12.74;52.96;101539.28;4867659;28;126724;-64
2022/10/27 02:53:57;;;;;;;;;;;;;;;12.70;53.21;101539.00;4870577;28;98681;-64
2022/10/27 02:56:23;;;;;;;;;;;;;;;12.68;53.07;101543.00;4868421;28;126554;-64
2022/10/27 02:58:49;;;;;;;;;;;;;;;12.65;53.01;101546.22;4876834;28;115836;-67
2022/10/27 03:01:15;;;;;;;;;;;;;;;12.61;53.19;101545.91;4874579;28;129477;-64
2022/10/27 03:03:41;;;;;;;;;;;;;;;12.59;52.96;101553.47;4866055;28;125899;-63
2022/10/27 03:06:07;;;;;;;;;;;;;;;12.57;53.23;101552.09;4855936;28;128668;-67
2022/10/27 03:08:33;;;;;;;;;;;;;;;12.53;53.08;101558.00;4869461;28;117902;-67
2022/10/27 03:10:59;;;;;;;;;;;;;;;12.51;53.15;101562.03;4870857;28;127916;-64
2022/10/27 03:13:24;;;;;;;;;;;;;;;12.48;53.04;101555.25;4876316;28;98301;-64
2022/10/27 03:15:50;;;;;;;;;;;;;;;12.46;53.02;101553.88;4879719;28;126597;-67
2022/10/27 03:18:16;;;;;;;;;;;;;;;12.41;53.03;101565.44;4882657;28;117215;-63
2022/10/27 03:20:45;;;;;;;;;;;;;;;12.41;53.07;101564.63;4879214;28;129862;-67
2022/10/27 03:23:11;;;;;;;;;;;;;;;12.37;53.08;101569.72;4880867;28;98319;-63
2022/10/27 03:25:42;;;;;;;;;;;;;;;12.34;53.11;101570.25;4873482;28;123167;-67
2022/10/27 03:28:09;;;;;;;;;;;;;;;12.32;53.10;101572.38;4876824;28;97893;-64
2022/10/27 03:30:35;;;;;;;;;;;;;;;12.29;53.13;101565.56;4876515;28;98497;-63
2022/10/27 03:33:01;;;;;;;;;;;;;;;12.27;52.97;101565.03;4874264;28;127508;-64
2022/10/27 03:35:26;;;;;;;;;;;;;;;12.25;53.00;101566.31;4875195;28;126267;-63
2022/10/27 03:37:56;;;;;;;;;;;;;;;12.23;53.26;101572.00;4872755;28;117250;-63
2022/10/27 03:40:22;;;;;;;;;;;;;;;12.22;53.05;101569.53;4870626;28;127119;-64
2022/10/27 03:42:48;;;;;;;;;;;;;;;12.18;53.10;101569.25;4873882;28;116132;-64
2022/10/27 03:45:14;;;;;;;;;;;;;;;12.16;53.07;101571.38;4876556;28;122472;-64
2022/10/27 03:47:40;;;;;;;;;;;;;;;12.14;53.28;101572.66;4870073;28;98025;-67
2022/10/27 03:50:06;;;;;;;;;;;;;;;12.12;53.04;101572.13;4868791;28;128067;-67
2022/10/27 03:52:32;;;;;;;;;;;;;;;12.10;53.20;101577.75;4872729;28;127286;-64
2022/10/27 03:54:58;;;;;;;;;;;;;;;12.08;53.11;101588.03;4875196;28;125352;-67
2022/10/27 03:57:24;;;;;;;;;;;;;;;12.06;53.02;101586.63;4876471;28;116952;-64
2022/10/27 03:59:50;;;;;;;;;;;;;;;12.02;53.05;101589.84;4874220;28;122706;-66
2022/10/27 04:02:16;;;;;;;;;;;;;;;11.99;53.08;101584.94;4869398;28;127083;-64
2022/10/27 04:04:42;;;;;;;;;;;;;;;11.98;53.10;101587.88;4875019;28;97755;-63
2022/10/27 04:07:08;;;;;;;;;;;;;;;11.93;53.08;101588.63;4868489;28;112529;-64
2022/10/27 04:09:34;;;;;;;;;;;;;;;11.92;53.21;101595.09;4868690;28;128020;-67
2022/10/27 04:12:00;;;;;;;;;;;;;;;11.88;53.00;101593.97;4869163;28;128038;-64
2022/10/27 04:14:26;;;;;;;;;;;;;;;11.85;53.14;101599.84;4867016;28;125027;-63
2022/10/27 04:16:52;;;;;;;;;;;;;;;11.83;53.02;101603.81;4872262;28;117880;-66
2022/10/27 04:19:18;;;;;;;;;;;;;;;11.79;53.08;101606.25;4876310;28;127603;-67
2022/10/27 04:21:44;;;;;;;;;;;;;;;11.76;53.06;101604.03;4874588;28;99221;-64
2022/10/27 04:24:10;;;;;;;;;;;;;;;11.73;53.21;101599.91;4868755;28;125566;-63
2022/10/27 04:26:37;;;;;;;;;;;;;;;11.71;52.93;101607.47;4878846;28;116741;-64
2022/10/27 04:29:03;;;;;;;;;;;;;;;11.69;53.30;101608.78;4874853;28;98515;-64
2022/10/27 04:31:29;;;;;;;;;;;;;;;11.65;53.24;101605.75;4871798;28;115793;-63
2022/10/27 04:33:54;;;;;;;;;;;;;;;11.63;52.97;101610.59;4875307;28;126652;-64
2022/10/27 04:36:20;;;;;;;;;;;;;;;11.62;53.08;101602.72;4871482;28;117074;-64
2022/10/27 04:38:49;;;;;;;;;;;;;;;11.60;53.12;101613.78;4875328;28;126287;-64
2022/10/27 04:41:15;;;;;;;;;;;;;;;11.57;53.19;101619.66;4878270;28;98607;-64
2022/10/27 04:43:41;;;;;;;;;;;;;;;11.56;53.19;101620.72;4871352;28;130929;-63
2022/10/27 04:46:07;;;;;;;;;;;;;;;11.56;53.28;101626.13;4853587;28;117537;-67
2022/10/27 04:48:33;;;;;;;;;;;;;;;11.54;53.38;101628.25;4868975;28;124456;-67
2022/10/27 04:50:59;;;;;;;;;;;;;;;11.52;53.39;101628.50;4872543;28;127477;-63
2022/10/27 04:53:25;;;;;;;;;;;;;;;11.50;53.12;101637.91;4862534;28;112253;-63
2022/10/27 04:55:51;;;;;;;;;;;;;;;11.47;53.16;101639.19;4874180;28;117452;-63
2022/10/27 04:58:17;;;;;;;;;;;;;;;11.45;53.05;101635.13;4878042;28;98834;-64
2022/10/27 05:00:43;;;;;;;;;;;;;;;11.43;53.11;101637.25;4872495;28;99513;-67
2022/10/27 05:03:09;;;;;;;;;;;;;;;11.40;53.29;101641.25;4877476;28;127587;-63
2022/10/27 05:05:35;;;;;;;;;;;;;;;11.37;53.12;101646.34;4871187;28;97860;-67
2022/10/27 05:08:01;;;;;;;;;;;;;;;11.36;53.45;101647.38;4865103;28;114199;-67
2022/10/27 05:10:28;;;;;;;;;;;;;;;11.34;53.23;101652.22;4868595;28;98979;-67
2022/10/27 05:12:57;;;;;;;;;;;;;;;11.31;53.27;101650.81;4874006;28;98336;-67
2022/10/27 05:15:23;;;;;;;;;;;;;;;11.28;53.29;101660.22;4873941;28;98217;-67
2022/10/27 05:17:49;;;;;;;;;;;;;;;11.25;52.97;101658.00;4871850;28;111655;-67
2022/10/27 05:20:15;;;;;;;;;;;;;;;11.24;53.38;101664.47;4879457;28;100572;-67
2022/10/27 05:22:41;;;;;;;;;;;;;;;11.22;53.32;101669.28;4875654;28;122947;-67
2022/10/27 05:25:07;;;;;;;;;;;;;;;11.20;53.12;101668.72;4872564;28;97778;-67
2022/10/27 05:27:33;;;;;;;;;;;;;;;11.18;53.23;101665.44;4866971;28;98191;-67
2022/10/27 05:29:59;;;;;;;;;;;;;;;11.17;53.07;101679.19;4868223;28;116714;-67
2022/10/27 05:32:25;;;;;;;;;;;;;;;11.13;53.20;101670.75;4858704;28;130455;-67
2022/10/27 05:34:50;;;;;;;;;;;;;;;11.12;53.35;101674.50;4873057;28;117445;-67
2022/10/27 05:37:16;;;;;;;;;;;;;;;11.11;53.04;101675.56;4871665;28;127923;-67
2022/10/27 05:39:42;;;;;;;;;;;;;;;11.09;53.32;101674.19;4870684;28;128711;-67
2022/10/27 05:42:08;;;;;;;;;;;;;;;11.07;53.15;101677.91;4862116;28;126592;-67
2022/10/27 05:44:34;;;;;;;;;;;;;;;11.06;53.33;101684.38;4873540;28;98004;-67
2022/10/27 05:47:00;;;;;;;;;;;;;;;11.06;53.01;101687.06;4870080;28;121704;-67
2022/10/27 05:49:26;;;;;;;;;;;;;;;11.04;53.28;101685.66;4867279;28;123697;-67
2022/10/27 05:51:52;;;;;;;;;;;;;;;11.03;53.06;101689.44;4868471;28;125986;-63
2022/10/27 05:54:18;;;;;;;;;;;;;;;11.02;53.25;101701.28;4865567;28;120030;-67
2022/10/27 05:56:44;;;;;;;;;;;;;;;11.01;53.27;101702.34;4875230;28;127392;-64
2022/10/27 05:59:13;;;;;;;;;;;;;;;10.99;52.93;101704.47;4874798;28;128110;-67
2022/10/27 06:01:39;;;;;;;;;;;;;;;10.96;53.05;101705.75;4871075;28;126069;-67
2022/10/27 06:04:04;;;;;;;;;;;;;;;10.95;52.86;101706.81;4868208;28;116356;-67
2022/10/27 06:06:31;;;;;;;;;;;;;;;10.95;53.07;101706.81;4864960;28;120798;-67
2022/10/27 06:08:57;;;;;;;;;;;;;;;10.97;53.21;101709.28;4871470;28;128111;-63
2022/10/27 06:11:22;;;;;;;;;;;;;;;10.96;53.09;101713.84;4867280;28;127463;-63
2022/10/27 06:13:50;;;;;;;;;;;;;;;10.97;53.13;101710.13;4870823;28;97849;-63
2022/10/27 06:16:16;;;;;;;;;;;;;;;10.97;53.13;101704.72;4865106;28;98988;-64
2022/10/27 06:18:42;;;;;;;;;;;;;;;10.98;52.68;101716.31;4877466;28;108836;-63
2022/10/27 06:21:08;;;;;;;;;;;;;;;10.97;53.02;101718.22;4875130;28;126890;-67
2022/10/27 06:23:34;;;;;;;;;;;;;;;10.97;52.89;101718.22;4865994;28;116373;-67
2022/10/27 06:25:59;;;;;;;;;;;;;;;10.98;53.16;101724.41;4876347;28;127420;-63
2022/10/27 06:28:25;;;;;;;;;;;;;;;10.98;52.88;101719.84;4869702;28;127853;-63
2022/10/27 06:30:52;;;;;;;;;;;;;;;11.01;53.07;101729.34;4866985;28;98273;-67
2022/10/27 06:33:17;;;;;;;;;;;;;;;11.02;53.01;101729.09;4870611;28;97917;-64
2022/10/27 06:35:45;;;;;;;;;;;;;;;11.06;52.99;101734.81;4869143;28;127962;-67
2022/10/27 06:38:15;;;;;;;;;;;;;;;11.05;52.92;101736.72;4866832;28;98686;-63
2022/10/27 06:40:42;;;;;;;;;;;;;;;11.07;52.68;101737.28;4862875;28;98373;-63
2022/10/27 06:43:09;;;;;;;;;;;;;;;11.10;52.90;101737.88;4865408;28;98299;-63
2022/10/27 06:45:35;;;;;;;;;;;;;;;11.11;52.67;101743.00;4874184;28;98368;-64
2022/10/27 06:48:01;;;;;;;;;;;;;;;11.14;52.78;101734.44;4878654;28;98671;-67
2022/10/27 06:50:27;;;;;;;;;;;;;;;11.18;52.81;101749.09;4871431;28;109959;-64
2022/10/27 06:52:53;;;;;;;;;;;;;;;11.23;52.59;101751.06;4873770;28;97890;-66
2022/10/27 06:55:19;;;;;;;;;;;;;;;11.26;52.66;101753.28;4875755;28;110313;-67
2022/10/27 06:57:45;;;;;;;;;;;;;;;11.30;52.62;101754.44;4875046;28;98525;-67
2022/10/27 07:00:11;;;;;;;;;;;;;;;11.36;52.33;101758.06;4871310;28;126453;-64
2022/10/27 07:02:37;;;;;;;;;;;;;;;11.39;52.76;101765.69;4880095;28;106925;-67
2022/10/27 07:05:04;;;;;;;;;;;;;;;11.44;52.41;101758.50;4880021;28;128787;-64
2022/10/27 07:07:30;;;;;;;;;;;;;;;11.49;52.66;101752.38;4873497;28;98258;-67
2022/10/27 07:09:56;;;;;;;;;;;;;;;11.53;52.36;101756.22;4872688;28;99633;-67
2022/10/27 07:12:22;;;;;;;;;;;;;;;11.59;52.47;101757.13;4869936;28;117372;-67
2022/10/27 07:14:48;;;;;;;;;;;;;;;11.65;52.53;101761.56;4875298;28;103491;-67
2022/10/27 07:17:14;;;;;;;;;;;;;;;11.70;52.36;101754.38;4876354;28;128197;-67
2022/10/27 07:19:40;;;;;;;;;;;;;;;11.77;52.53;101760.44;4861349;28;98012;-64
2022/10/27 07:22:06;;;;;;;;;;;;;;;11.85;52.34;101758.44;4872690;28;117386;-64
2022/10/27 07:24:32;;;;;;;;;;;;;;;11.94;52.21;101765.06;4874656;28;129084;-64
2022/10/27 07:26:58;;;;;;;;;;;;;;;12.02;52.23;101760.09;4873232;28;129145;-67
2022/10/27 07:29:24;;;;;;;;;;;;;;;12.13;52.05;101768.34;4870772;28;98187;-67
2022/10/27 07:31:50;;;;;;;;;;;;;;;12.24;52.12;101765.56;4872047;28;98430;-67
2022/10/27 07:34:15;;;;;;;;;;;;;;;12.38;51.85;101763.34;4868382;28;127979;-64
2022/10/27 07:36:41;;;;;;;;;;;;;;;12.53;51.89;101768.13;4876613;28;128063;-64
2022/10/27 07:39:07;;;;;;;;;;;;;;;12.73;51.58;101763.03;4873528;28;127625;-65
2022/10/27 07:41:33;;;;;;;;;;;;;;;12.96;51.25;101767.34;4873080;28;117142;-64
2022/10/27 07:43:59;;;;;;;;;;;;;;;13.13;51.27;101766.50;4867236;28;127827;-64
2022/10/27 07:46:25;;;;;;;;;;;;;;;13.39;51.01;101763.00;4869158;28;125410;-67
2022/10/27 07:48:51;;;;;;;;;;;;;;;13.68;50.79;101766.31;4868223;28;128342;-64
2022/10/27 07:51:17;;;;;;;;;;;;;;;14.07;50.60;101766.09;4869610;28;116678;-64
2022/10/27 07:53:43;;;;;;;;;;;;;;;14.48;49.97;101769.91;4872317;28;99288;-67
2022/10/27 07:56:09;;;;;;;;;;;;;;;14.81;49.81;101773.34;4866232;28;127004;-64
2022/10/27 07:58:35;;;;;;;;;;;;;;;15.20;49.47;101770.25;4874618;28;128742;-65
2022/10/27 08:01:02;;;;;;;;;;;;;;;15.55;49.15;101774.16;4878229;28;117807;-67
2022/10/27 08:03:30;;;;;;;;;;;;;;;15.88;48.93;101772.88;4873601;28;97911;-67
2022/10/27 08:06:01;;;;;;;;;;;;;;;16.21;48.82;101766.06;4867044;28;98237;-67
2022/10/27 08:08:28;;;;;;;;;;;;;;;16.50;48.77;101774.44;4880769;28;98226;-67
2022/10/27 08:10:53;;;;;;;;;;;;;;;16.76;48.59;101777.94;4870892;28;105270;-67
2022/10/27 08:13:19;;;;;;;;;;;;;;;17.04;48.40;101778.38;4863188;28;128613;-68
2022/10/27 08:15:45;;;;;;;;;;;;;;;17.32;48.30;101777.69;4871268;28;128113;-65
2022/10/27 08:18:11;;;;;;;;;;;;;;;17.67;48.01;101779.38;4866916;28;127083;-64
2022/10/27 08:20:40;;;;;;;;;;;;;;;18.01;47.94;101767.72;4878347;28;98099;-68
2022/10/27 08:23:09;;;;;;;;;;;;;;;18.35;47.80;101764.94;4878427;28;128011;-64
2022/10/27 08:25:35;;;;;;;;;;;;;;;18.73;47.56;101767.84;4868766;28;99049;-69
2022/10/27 08:28:01;;;;;;;;;;;;;;;19.15;47.41;101771.69;4867031;28;121300;-66
2022/10/27 08:30:28;;;;;;;;;;;;;;;19.56;47.29;101773.84;4872221;28;97846;-64
2022/10/27 08:32:57;;;;;;;;;;;;;;;19.95;47.22;101773.53;4873590;28;98325;-68
2022/10/27 08:35:24;;;;;;;;;;;;;;;20.34;47.21;101780.53;4874191;28;98564;-65
2022/10/27 08:37:56;;;;;;;;;;;;;;;20.70;46.99;101774.41;4873007;28;125006;-69
2022/10/27 08:40:22;;;;;;;;;;;;;;;21.01;47.14;101774.59;4868154;28;114753;-67
2022/10/27 08:43:03;;;;;;;;;;;;;;;21.31;47.06;101790.38;4874826;28;129044;-67
2022/10/27 08:45:31;;;;;;;;;;;;;;;21.65;47.03;101789.09;4868846;28;124647;-69
2022/10/27 08:47:57;;;;;;;;;;;;;;;21.96;47.10;101785.59;4860823;28;128003;-67
2022/10/27 08:50:25;;;;;;;;;;;;;;;22.22;46.96;101785.81;4867518;28;116213;-67
2022/10/27 08:53:02;;;;;;;;;;;;;;;22.43;47.01;101786.88;4877435;28;99267;-68
2022/10/27 08:55:29;;;;;;;;;;;;;;;22.67;47.15;101788.44;4860339;28;121856;-67
2022/10/27 08:58:09;;;;;;;;;;;;;;;22.88;47.16;101784.00;4873764;28;115121;-66
2022/10/27 09:00:58;;;;;;;;;;;;;;;23.11;47.39;101792.16;4881399;28;98146;-69
2022/10/27 09:04:05;;;;;;;;;;;;;;;23.36;47.37;101790.59;4860623;28;125708;-66
2022/10/27 09:06:38;;;;;;;;;;;;;;;23.62;47.32;101796.91;4852961;28;98227;-67
2022/10/27 09:09:14;;;;;;;;;;;;;;;23.86;47.19;101793.69;4869323;28;121208;-68
2022/10/27 09:11:45;;;;;;;;;;;;;;;24.11;47.44;101794.78;4863361;28;113457;-66
2022/10/27 09:14:39;;;;;;;;;;;;;;;24.39;47.06;101797.16;4869154;28;125347;-68
2022/10/27 09:17:11;;;;;;;;;;;;;;;24.74;47.07;101795.88;4875270;28;98767;-66
2022/10/27 09:20:00;;;;;;;;;;;;;;;24.96;47.08;101792.06;4876909;28;98647;-67
2022/10/27 09:22:26;;;;;;;;;;;;;;;25.18;47.18;101787.41;4866419;28;98026;-67
2022/10/27 09:25:05;;;;;;;;;;;;;;;25.38;47.15;101783.03;4861840;28;128091;-68
2022/10/27 09:27:31;;;;;;;;;;;;;;;25.69;46.91;101779.84;4871359;28;126431;-69
2022/10/27 09:30:00;;;;;;;;;;;;;;;25.98;47.00;101781.72;4854351;28;98338;-67
2022/10/27 09:32:26;;;;;;;;;;;;;;;26.36;46.54;101778.69;4861243;28;98023;-67
2022/10/27 09:35:02;;;;;;;;;;;;;;;26.90;46.35;101775.75;4865849;28;118693;-67
2022/10/27 09:37:29;;;;;;;;;;;;;;;27.57;45.65;101781.72;4875771;28;98458;-67
2022/10/27 09:39:56;;;;;;;;;;;;;;;28.40;44.32;101784.81;4876054;28;126911;-67
2022/10/27 09:42:22;;;;;;;;;;;;;;;28.91;44.09;101782.06;4871541;28;98211;-67
2022/10/27 09:44:59;;;;;;;;;;;;;;;29.30;44.16;101779.41;4875811;28;128166;-67
2022/10/27 09:47:26;;;;;;;;;;;;;;;29.86;43.65;101780.94;4879080;28;107009;-67
2022/10/27 09:49:55;;;;;;;;;;;;;;;30.00;43.72;101775.66;4872119;28;98308;-69
2022/10/27 09:52:36;;;;;;;;;;;;;;;30.14;43.89;101766.75;4871860;28;97963;-69
2022/10/27 09:55:02;;;;;;;;;;;;;;;30.20;44.41;101766.13;4863418;28;127886;-69
2022/10/27 09:57:31;;;;;;;;;;;;;;;30.25;44.78;101774.16;4865301;28;128412;-69
2022/10/27 10:00:01;;;;;;;;;;;;;;;30.21;44.98;101770.50;4877144;28;120500;-69
2022/10/27 10:02:39;;;;;;;;;;;;;;;30.15;45.54;101766.41;4872246;28;98017;-69
2022/10/27 10:05:15;;;;;;;;;;;;;;;30.66;44.63;101760.53;4869337;28;98403;-69
2022/10/27 10:07:43;;;;;;;;;;;;;;;31.58;43.62;101770.56;4871957;28;120572;-67
2022/10/27 10:10:25;;;;;;;;;;;;;;;32.40;42.42;101775.03;4874699;28;98320;-67
2022/10/27 10:13:06;;;;;;;;;;;;;;;33.27;41.55;101765.22;4872245;28;118123;-68
2022/10/27 10:15:43;;;;;;;;;;;;;;;34.13;41.10;101771.88;4875747;28;98342;-69
2022/10/27 10:18:25;;;;;;;;;;;;;;;34.78;40.38;101762.28;4883070;28;98789;-69
2022/10/27 10:21:02;;;;;;;;;;;;;;;35.46;39.68;101756.47;4865568;28;98630;-67
2022/10/27 10:23:30;;;;;;;;;;;;;;;35.61;39.71;101746.00;4876460;28;100145;-69
2022/10/27 10:25:57;;;;;;;;;;;;;;;35.78;40.03;101747.88;4872729;28;98560;-67
2022/10/27 10:28:36;;;;;;;;;;;;;;;36.05;39.60;101742.50;4881753;28;98590;-67
2022/10/27 10:31:04;;;;;;;;;;;;;;;35.95;39.72;101734.94;4884105;28;98066;-67
2022/10/27 10:33:40;;;;;;;;;;;;;;;35.56;40.43;101730.41;4875431;28;98106;-67
2022/10/27 10:36:26;;;;;;;;;;;;;;;35.07;41.33;101723.81;4875064;28;99049;-70
2022/10/27 10:38:57;;;;;;;;;;;;;;;35.04;41.23;101721.03;4873784;28;99096;-67
2022/10/27 10:41:23;;;;;;;;;;;;;;;34.65;41.48;101710.72;4875892;28;98841;-69
2022/10/27 10:44:12;;;;;;;;;;;;;;;33.95;42.46;101704.72;4884008;28;97787;-69
2022/10/27 10:46:39;;;;;;;;;;;;;;;33.32;43.13;101712.56;4869713;28;99258;-67
2022/10/27 10:49:10;;;;;;;;;;;;;;;32.83;43.83;101705.56;4871400;28;98959;-66
2022/10/27 10:51:36;;;;;;;;;;;;;;;31.91;44.78;101703.69;4864198;28;118998;-66
2022/10/27 10:54:07;;;;;;;;;;;;;;;31.22;45.49;101708.84;4869319;28;115911;-67
2022/10/27 10:56:36;;;;;;;;;;;;;;;30.24;46.69;101700.28;4860704;28;99254;-67
2022/10/27 10:59:06;;;;;;;;;;;;;;;29.42;47.52;101707.06;4876645;28;117873;-68
2022/10/27 11:01:58;;;;;;;;;;;;;;;28.79;47.80;101697.00;4872886;28;98074;-66
2022/10/27 11:04:29;;;;;;;;;;;;;;;28.18;48.37;101696.69;4882517;28;116830;-68
2022/10/27 11:07:27;;;;;;;;;;;;;;;27.74;48.76;101700.34;4874944;28;99766;-68
2022/10/27 11:10:11;;;;;;;;;;;;;;;27.27;48.75;101697.41;4873701;28;98775;-68
2022/10/27 11:12:46;;;;;;;;;;;;;;;26.91;48.89;101693.56;4864167;28;120657;-67
2022/10/27 11:15:17;;;;;;;;;;;;;;;26.58;49.13;101693.75;4871165;28;117719;-68
2022/10/27 11:17:43;;;;;;;;;;;;;;;26.29;48.99;101691.97;4877942;28;98857;-68
2022/10/27 11:20:15;;;;;;;;;;;;;;;26.05;49.09;101684.47;4876648;28;104549;-68
2022/10/27 11:22:42;;;;;;;;;;;;;;;25.78;49.17;101686.75;4865462;28;126625;-66
2022/10/27 11:25:18;;;;;;;;;;;;;;;25.57;49.38;101688.72;4870043;28;98221;-67
2022/10/27 11:27:56;;;;;;;;;;;;;;;25.34;49.39;101680.00;4882092;28;98557;-67
2022/10/27 11:30:26;;;;;;;;;;;;;;;25.07;49.69;101679.38;4876115;28;98665;-66
2022/10/27 11:33:33;;;;;;;;;;;;;;;24.85;49.55;101683.28;4878226;28;98612;-67
2022/10/27 11:36:10;;;;;;;;;;;;;;;24.61;49.64;101685.88;4870798;28;100236;-66
2022/10/27 11:38:38;;;;;;;;;;;;;;;24.40;49.70;101686.63;4873920;28;98491;-68
2022/10/27 11:41:12;;;;;;;;;;;;;;;24.25;49.84;101696.25;4874958;28;126593;-68
2022/10/27 11:43:54;;;;;;;;;;;;;;;24.10;49.85;101685.78;4872674;28;109072;-66
2022/10/27 11:46:25;;;;;;;;;;;;;;;23.97;49.70;101697.78;4865741;28;98054;-66
2022/10/27 11:48:56;;;;;;;;;;;;;;;23.86;49.55;101694.59;4868307;28;126489;-68
2022/10/27 11:51:30;;;;;;;;;;;;;;;23.74;49.63;101691.72;4872918;28;99634;-65
2022/10/27 11:53:56;;;;;;;;;;;;;;;23.62;49.66;101688.78;4874563;28;119618;-68
2022/10/27 11:56:53;;;;;;;;;;;;;;;23.53;49.63;101686.84;4878662;28;117536;-65
2022/10/27 11:59:34;;;;;;;;;;;;;;;23.43;49.65;101678.94;4867529;28;98430;-67
2022/10/27 12:02:17;;;;;;;;;;;;;;;23.35;49.60;101681.72;4877910;28;100845;-66
2022/10/27 12:04:49;;;;;;;;;;;;;;;23.25;49.66;101689.13;4876166;28;98103;-66
2022/10/27 12:07:34;;;;;;;;;;;;;;;23.15;49.71;101681.22;4871080;28;97967;-67
2022/10/27 12:10:07;;;;;;;;;;;;;;;23.03;49.83;101681.06;4875299;28;99016;-66
2022/10/27 12:12:38;;;;;;;;;;;;;;;22.93;49.91;101681.38;4872481;28;99388;-67
2022/10/27 12:15:13;;;;;;;;;;;;;;;22.82;49.99;101675.31;4861466;28;98001;-67
2022/10/27 12:17:49;;;;;;;;;;;;;;;22.72;49.94;101670.97;4871486;28;97981;-66
2022/10/27 12:20:23;;;;;;;;;;;;;;;22.62;49.80;101671.25;4870316;28;98812;-66
2022/10/27 12:22:53;;;;;;;;;;;;;;;22.51;50.12;101673.47;4874080;28;119603;-66
2022/10/27 12:25:21;;;;;;;;;;;;;;;22.41;49.78;101671.03;4870615;28;98450;-68
2022/10/27 12:27:51;;;;;;;;;;;;;;;22.32;49.91;101670.19;4874721;28;99153;-67
2022/10/27 12:30:19;;;;;;;;;;;;;;;22.24;49.91;101665.47;4859853;28;98968;-68
2022/10/27 12:32:55;;;;;;;;;;;;;;;22.16;50.02;101660.75;4873184;28;98951;-67
2022/10/27 12:35:56;;;;;;;;;;;;;;;22.05;50.00;101662.97;4855223;28;126070;-67
2022/10/27 12:38:43;;;;;;;;;;;;;;;21.97;50.03;101650.81;4848920;28;122695;-69
2022/10/27 12:41:23;;;;;;;;;;;;;;;21.94;49.91;101648.69;4879225;28;98822;-66
2022/10/27 12:43:58;;;;;;;;;;;;;;;21.94;49.89;101650.63;4861616;28;127347;-67